Eagle San Pedro — 9V9334 — position and weather

sailwx.info

Track history (hours):
 
Tides and Currents Weather Stations Pressure Air Temp Water Temp Dewpoint Dewpoint Depression Visibility Wind Speed Wind Dir Waves Ship Positions

Eagle San Pedro

Last reported at 2017-Sep-21 02:07 UTC. Time now 2017-Oct-18 18:52 UTC.
Position N 37°25' W 123°17'.
Warning: this ship's position is 27 days out of date.

Length 274 m; draft 9.5 m.

Type: Tanker. MMSI: 566690000.

Date/timePositionNaut miles runAvg speedWind from/ knotsBaromVisibWave heightAir tempDewpointWater temp
2017-Sep-21 02:07N 37°25' W 123°17'112.4
2017-Sep-21 02:00N 37°26' W 123°16'611.4
2017-Sep-21 01:30N 37°29' W 123°11'5 9.9
2017-Sep-21 01:00N 37°33' W 123°06'5 9.9
2017-Sep-21 00:30N 37°36' W 123°01'510.0
2017-Sep-21 00:00N 37°38' W 122°56'5 9.9
2017-Sep-20 23:30N 37°41' W 122°50'5 9.6
2017-Sep-20 23:00N 37°43' W 122°45'5 9.6
2017-Sep-20 22:30N 37°46' W 122°40'714.4
2017-Sep-20 22:00N 37°48' W 122°31'612.2
2017-Sep-20 21:30N 37°49' W 122°24'4 8.2
2017-Sep-20 21:00N 37°46' W 122°21'0 0.1
2017-Sep-20 20:30N 37°46' W 122°21'0 0.0
2017-Sep-20 20:00N 37°46' W 122°21'0 0.1
2017-Sep-20 19:30N 37°46' W 122°21'0 0.1
2017-Sep-20 19:00N 37°46' W 122°21'0 0.0
2017-Sep-20 18:29N 37°46' W 122°21'0 0.0
2017-Sep-20 17:58N 37°46' W 122°21'0 0.0
2017-Sep-20 17:28N 37°46' W 122°21'0 0.0
2017-Sep-20 16:58N 37°46' W 122°21'0 0.0
2017-Sep-20 16:29N 37°46' W 122°21'0 0.0
2017-Sep-20 15:58N 37°46' W 122°21'0 0.0
2017-Sep-20 15:28N 37°46' W 122°21'0 0.1
2017-Sep-20 14:58N 37°46' W 122°21'0 0.2
2017-Sep-20 13:58N 37°46' W 122°21'0 0.1
2017-Sep-20 13:28N 37°46' W 122°21'0 0.1
2017-Sep-20 12:58N 37°46' W 122°21'0 0.0
2017-Sep-20 12:28N 37°46' W 122°21'0 0.0
2017-Sep-20 11:58N 37°46' W 122°21'0 0.0
2017-Sep-20 11:28N 37°46' W 122°21'0 0.0
2017-Sep-20 10:58N 37°46' W 122°21'0 0.0
2017-Sep-20 10:29N 37°46' W 122°21'0 0.0
2017-Sep-20 09:58N 37°46' W 122°21'0 0.0
2017-Sep-20 09:25N 37°46' W 122°21'0 0.0
2017-Sep-20 08:59N 37°46' W 122°21'0 0.1
2017-Sep-20 08:28N 37°46' W 122°21'0 0.5
2017-Sep-20 07:59N 37°46' W 122°21'0 0.0
2017-Sep-20 07:26N 37°46' W 122°21'0 0.1
2017-Sep-20 06:58N 37°46' W 122°21'0 0.1
2017-Sep-20 06:29N 37°46' W 122°21'0 0.0
2017-Sep-20 05:58N 37°46' W 122°21'0 0.0
2017-Sep-20 05:29N 37°46' W 122°21'0 0.0
2017-Sep-20 04:58N 37°46' W 122°21'0 0.0
2017-Sep-20 04:28N 37°46' W 122°21'0 0.0
2017-Sep-20 03:58N 37°46' W 122°21'0 0.0
2017-Sep-20 03:29N 37°46' W 122°21'0 0.1
2017-Sep-20 02:58N 37°46' W 122°21'0 0.0
2017-Sep-20 02:28N 37°46' W 122°21'0 0.1
2017-Sep-20 01:58N 37°46' W 122°21'0 0.3
2017-Sep-20 01:28N 37°46' W 122°21'0 0.2
2017-Sep-20 00:58N 37°46' W 122°21'0 0.0
2017-Sep-20 00:28N 37°46' W 122°21'0 0.0
2017-Sep-19 23:58N 37°46' W 122°21'0 0.0
2017-Sep-19 23:28N 37°46' W 122°21'0 0.0
2017-Sep-19 22:58N 37°46' W 122°21'0 0.1
2017-Sep-19 22:28N 37°46' W 122°21'0 0.0
2017-Sep-19 21:58N 37°46' W 122°21'0 0.0
2017-Sep-19 21:28N 37°46' W 122°21'0 0.0
2017-Sep-19 20:58N 37°46' W 122°21'0 0.2
2017-Sep-19 20:26N 37°46' W 122°21'0 0.4
2017-Sep-19 19:58N 37°46' W 122°21'0 0.1
2017-Sep-19 19:28N 37°46' W 122°21'0 0.1
2017-Sep-19 18:58N 37°46' W 122°21'0 0.0
2017-Sep-19 18:28N 37°46' W 122°21'0 0.0
2017-Sep-19 17:55N 37°46' W 122°21'0 0.1
2017-Sep-19 17:28N 37°46' W 122°21'0 0.1
2017-Sep-19 16:58N 37°46' W 122°21'0 0.1
2017-Sep-19 16:28N 37°46' W 122°21'0 0.1
2017-Sep-19 15:58N 37°46' W 122°21'0 0.0
2017-Sep-19 15:28N 37°46' W 122°21'0 0.1
2017-Sep-19 14:58N 37°46' W 122°21'0 0.1
2017-Sep-19 14:28N 37°46' W 122°21'0 0.4
2017-Sep-19 13:58N 37°46' W 122°21'0 0.2
2017-Sep-19 13:28N 37°46' W 122°21'0 0.1
2017-Sep-19 12:58N 37°46' W 122°21'0 0.0
2017-Sep-19 12:28N 37°46' W 122°21'0 0.0
2017-Sep-19 11:58N 37°46' W 122°21'0 0.0
2017-Sep-19 11:28N 37°46' W 122°21'0 0.0
2017-Sep-19 10:58N 37°46' W 122°21'0 0.3
2017-Sep-19 10:31N 37°46' W 122°21'4 7.5
2017-Sep-19 10:00N 37°49' W 122°24'815.0
2017-Sep-19 09:30N 37°57' W 122°27'714.8
2017-Sep-19 09:01N 38°02' W 122°21'611.3
2017-Sep-19 08:30N 38°04' W 122°14'5 9.6
2017-Sep-19 08:00N 38°02' W 122°08'1 0.0
2017-Sep-17 18:01N 38°03' W 122°08'0 0.7
2017-Sep-17 18:00N 38°03' W 122°08'2 3.6
2017-Sep-17 17:28N 38°02' W 122°10'4 9.3
2017-Sep-17 17:00N 38°04' W 122°15'4 8.8
2017-Sep-17 16:31N 38°03' W 122°21'510.9
2017-Sep-17 16:00N 37°59' W 122°26'611.5
2017-Sep-17 15:30N 37°53' W 122°26'4 8.1
2017-Sep-17 15:00N 37°49' W 122°25'713.4
2017-Sep-17 14:30N 37°47' W 122°34'713.2
2017-Sep-17 14:00N 37°45' W 122°41'4 7.9
2017-Sep-17 13:30N 37°42' W 122°45'3 6.0
2017-Sep-17 13:00N 37°40' W 122°48'4 7.3
2017-Sep-17 12:30N 37°38' W 122°52'4 7.2
2017-Sep-17 12:00N 37°36' W 122°55'3 6.8
2017-Sep-17 11:30N 37°34' W 122°59'3 7.0
2017-Sep-17 11:00N 37°32' W 123°03'4 7.7
2017-Sep-17 10:30N 37°30' W 123°07'3 6.9
2017-Sep-17 10:00N 37°28' W 123°10'4 7.2
2017-Sep-17 09:30N 37°25' W 123°13'3 6.4
2017-Sep-17 09:00N 37°23' W 123°16'3 6.5
2017-Sep-17 08:30N 37°21' W 123°19'3 6.6
2017-Sep-17 08:00N 37°19' W 123°22'3 6.8
2017-Sep-17 07:30N 37°16' W 123°26'3 6.3
2017-Sep-17 07:00N 37°14' W 123°29'3 7.1
2017-Sep-17 06:30N 37°12' W 123°32'611.1
2017-Sep-17 06:00N 37°07' W 123°35'612.4
2017-Sep-17 05:30N 37°01' W 123°36'612.3
2017-Sep-17 05:00N 36°55' W 123°36'612.2
2017-Sep-17 04:30N 36°49' W 123°37'612.3
2017-Sep-17 04:00N 36°43' W 123°38'1112.4
2017-Sep-17 03:08N 36°32' W 123°39'212.4
2017-Sep-17 02:58N 36°30' W 123°39'612.6
2017-Sep-17 02:30N 36°24' W 123°39'3912.3
2017-Sep-16 23:22N 35°45' W 123°43'1712.7
2017-Sep-16 22:00N 35°28' W 123°45'4212.9
2017-Sep-16 18:46N 34°47' W 123°49'412.9
2017-Sep-16 18:30N 34°43' W 123°50'612.6
2017-Sep-16 18:00N 34°37' W 123°50'712.6
2017-Sep-16 17:27N 34°30' W 123°49'3012.2
2017-Sep-16 15:01N 34°02' W 123°38'014.2
2017-Sep-16 15:00N 34°01' W 123°38'713.8
2017-Sep-16 14:30N 33°56' W 123°33'713.6
2017-Sep-16 13:59N 33°51' W 123°27'1013.2
2017-Sep-16 13:12N 33°43' W 123°19'413.2
2017-Sep-16 12:54N 33°40' W 123°17'512.3
2017-Sep-16 12:28N 33°36' W 123°12'612.9
2017-Sep-16 11:59N 33°31' W 123°07'812.9
2017-Sep-16 11:22N 33°25' W 123°02'512.8
2017-Sep-16 11:00N 33°21' W 122°58'713.1
2017-Sep-16 10:30N 33°16' W 122°53'1713.1
2017-Sep-16 09:14N 33°03' W 122°40'313.2
2017-Sep-16 09:00N 33°01' W 122°38'713.0
2017-Sep-16 08:28N 32°55' W 122°33'713.1
2017-Sep-16 07:55N 32°49' W 122°28'613.0
2017-Sep-16 07:28N 32°45' W 122°23'712.9
2017-Sep-16 06:57N 32°40' W 122°18'612.4
2017-Sep-16 06:30N 32°36' W 122°14'813.0
2017-Sep-16 05:56N 32°30' W 122°09'4712.4
2017-Sep-16 02:07N 32°05' W 121°22'213.9
2017-Sep-16 02:00N 32°05' W 121°20'713.6
2017-Sep-16 01:30N 32°03' W 121°12'713.3
2017-Sep-16 01:00N 32°02' W 121°04'713.1
2017-Sep-16 00:30N 32°00' W 120°57'913.0
2017-Sep-15 23:49N 31°59' W 120°46'613.1
2017-Sep-15 23:24N 31°58' W 120°40'613.0
2017-Sep-15 22:58N 31°57' W 120°33'613.1
2017-Sep-15 22:29N 31°55' W 120°26'1513.1
2017-Sep-15 21:22N 31°52' W 120°09'3813.2
2017-Sep-15 18:30N 31°44' W 119°26'613.2
2017-Sep-15 18:00N 31°42' W 119°18'12 7.7
2017-Sep-15 16:28N 31°42' W 119°04'1 2.2
2017-Sep-15 15:55N 31°42' W 119°06'1 2.1
2017-Sep-15 15:25N 31°43' W 119°07'1 2.6
2017-Sep-15 15:00N 31°43' W 119°08'1 2.1
2017-Sep-15 14:28N 31°43' W 119°09'1 1.7
2017-Sep-15 13:42N 31°44' W 119°11'0 1.1
2017-Sep-15 13:20N 31°44' W 119°11'0 1.2
2017-Sep-15 12:55N 31°44' W 119°12'1 1.6
2017-Sep-15 12:23N 31°45' W 119°12'0 1.2
2017-Sep-15 11:59N 31°45' W 119°13'1 1.6
2017-Sep-15 11:30N 31°46' W 119°14'1 1.3
2017-Sep-15 11:01N 31°46' W 119°14'1 1.3
2017-Sep-15 10:30N 31°46' W 119°15'1 1.9
2017-Sep-15 10:00N 31°47' W 119°15'1 1.2
2017-Sep-15 09:30N 31°48' W 119°16'1 2.0
2017-Sep-15 08:59N 31°48' W 119°17'1 1.7
2017-Sep-15 08:30N 31°49' W 119°17'1 1.2
2017-Sep-15 08:00N 31°49' W 119°18'0 0.9
2017-Sep-15 07:30N 31°50' W 119°18'1 1.3
2017-Sep-15 06:56N 31°50' W 119°19'1 1.5
2017-Sep-15 06:30N 31°51' W 119°19'1 1.3
2017-Sep-15 06:00N 31°51' W 119°20'1 1.5
2017-Sep-15 05:30N 31°52' W 119°20'1 1.3
2017-Sep-15 04:58N 31°52' W 119°21'1 1.3
2017-Sep-15 04:24N 31°53' W 119°21'1 1.5
2017-Sep-15 04:00N 31°53' W 119°22'1 1.4
2017-Sep-15 03:31N 31°54' W 119°22'1 1.6
2017-Sep-15 02:58N 31°55' W 119°22'1 1.5
2017-Sep-15 02:28N 31°56' W 119°23'1 1.3
2017-Sep-15 02:00N 31°56' W 119°23'1 1.6
2017-Sep-15 01:29N 31°57' W 119°23'1 1.3
2017-Sep-15 01:00N 31°57' W 119°23'1 1.4
2017-Sep-15 00:30N 31°58' W 119°24'1 1.7
2017-Sep-14 23:58N 31°59' W 119°24'1 1.4
2017-Sep-14 23:28N 31°60' W 119°24'1 1.3
2017-Sep-14 23:00N 32°00' W 119°25'1 1.3
2017-Sep-14 22:27N 32°01' W 119°25'1 1.5
2017-Sep-14 22:00N 32°01' W 119°26'1 1.4
2017-Sep-14 21:25N 32°02' W 119°26'1 1.4
2017-Sep-14 20:55N 32°02' W 119°27'1 1.5
2017-Sep-14 20:29N 32°03' W 119°27'1 1.5
2017-Sep-14 19:54N 32°03' W 119°28'1 1.4
2017-Sep-14 19:26N 32°04' W 119°29'1 1.6
2017-Sep-14 19:00N 32°04' W 119°29'1 1.6
2017-Sep-14 18:25N 32°05' W 119°30'0 1.1
2017-Sep-14 18:00N 32°05' W 119°31'1 1.2
2017-Sep-14 17:25N 32°05' W 119°32'1 1.3
2017-Sep-14 16:49N 32°06' W 119°32'1 2.4
2017-Sep-14 16:30N 32°06' W 119°33'2 4.1
2017-Sep-14 15:54N 32°07' W 119°36'3 5.3
2017-Sep-14 15:25N 32°08' W 119°38'2 4.6
2017-Sep-14 15:00N 32°09' W 119°40'4 2.0
2017-Sep-14 13:13N 32°11' W 119°44'1 2.9
2017-Sep-14 12:52N 32°11' W 119°45'3 0.3
2017-Sep-14 01:54N 32°11' W 119°49'3110.4
2017-Sep-13 22:52N 31°40' W 119°43'513.2
2017-Sep-13 22:30N 31°35' W 119°42'  
Track history (hours):
 
Tides and Currents Weather Stations Pressure Air Temp Water Temp Dewpoint Dewpoint Depression Visibility Wind Speed Wind Dir Waves Ship Positions

Eagle San Pedro

Last reported at 2017-Sep-21 02:07 UTC. Time now 2017-Oct-18 18:52 UTC.
Position N 37°25' W 123°17'.
Warning: this ship's position is 27 days out of date.

Length 274 m; draft 9.5 m.

Type: Tanker. MMSI: 566690000.

Date/timePositionNaut miles runAvg speedWind from/ knotsBaromVisibWave heightAir tempDewpointWater temp
2017-Sep-21 02:07N 37°25' W 123°17'112.4
2017-Sep-21 02:00N 37°26' W 123°16'611.4
2017-Sep-21 01:30N 37°29' W 123°11'5 9.9
2017-Sep-21 01:00N 37°33' W 123°06'5 9.9
2017-Sep-21 00:30N 37°36' W 123°01'510.0
2017-Sep-21 00:00N 37°38' W 122°56'5 9.9
2017-Sep-20 23:30N 37°41' W 122°50'5 9.6
2017-Sep-20 23:00N 37°43' W 122°45'5 9.6
2017-Sep-20 22:30N 37°46' W 122°40'714.4
2017-Sep-20 22:00N 37°48' W 122°31'612.2
2017-Sep-20 21:30N 37°49' W 122°24'4 8.2
2017-Sep-20 21:00N 37°46' W 122°21'0 0.1
2017-Sep-20 20:30N 37°46' W 122°21'0 0.0
2017-Sep-20 20:00N 37°46' W 122°21'0 0.1
2017-Sep-20 19:30N 37°46' W 122°21'0 0.1
2017-Sep-20 19:00N 37°46' W 122°21'0 0.0
2017-Sep-20 18:29N 37°46' W 122°21'0 0.0
2017-Sep-20 17:58N 37°46' W 122°21'0 0.0
2017-Sep-20 17:28N 37°46' W 122°21'0 0.0
2017-Sep-20 16:58N 37°46' W 122°21'0 0.0
2017-Sep-20 16:29N 37°46' W 122°21'0 0.0
2017-Sep-20 15:58N 37°46' W 122°21'0 0.0
2017-Sep-20 15:28N 37°46' W 122°21'0 0.1
2017-Sep-20 14:58N 37°46' W 122°21'0 0.2
2017-Sep-20 13:58N 37°46' W 122°21'0 0.1
2017-Sep-20 13:28N 37°46' W 122°21'0 0.1
2017-Sep-20 12:58N 37°46' W 122°21'0 0.0
2017-Sep-20 12:28N 37°46' W 122°21'0 0.0
2017-Sep-20 11:58N 37°46' W 122°21'0 0.0
2017-Sep-20 11:28N 37°46' W 122°21'0 0.0
2017-Sep-20 10:58N 37°46' W 122°21'0 0.0
2017-Sep-20 10:29N 37°46' W 122°21'0 0.0
2017-Sep-20 09:58N 37°46' W 122°21'0 0.0
2017-Sep-20 09:25N 37°46' W 122°21'0 0.0
2017-Sep-20 08:59N 37°46' W 122°21'0 0.1
2017-Sep-20 08:28N 37°46' W 122°21'0 0.5
2017-Sep-20 07:59N 37°46' W 122°21'0 0.0
2017-Sep-20 07:26N 37°46' W 122°21'0 0.1
2017-Sep-20 06:58N 37°46' W 122°21'0 0.1
2017-Sep-20 06:29N 37°46' W 122°21'0 0.0
2017-Sep-20 05:58N 37°46' W 122°21'0 0.0
2017-Sep-20 05:29N 37°46' W 122°21'0 0.0
2017-Sep-20 04:58N 37°46' W 122°21'0 0.0
2017-Sep-20 04:28N 37°46' W 122°21'0 0.0
2017-Sep-20 03:58N 37°46' W 122°21'0 0.0
2017-Sep-20 03:29N 37°46' W 122°21'0 0.1
2017-Sep-20 02:58N 37°46' W 122°21'0 0.0
2017-Sep-20 02:28N 37°46' W 122°21'0 0.1
2017-Sep-20 01:58N 37°46' W 122°21'0 0.3
2017-Sep-20 01:28N 37°46' W 122°21'0 0.2
2017-Sep-20 00:58N 37°46' W 122°21'0 0.0
2017-Sep-20 00:28N 37°46' W 122°21'0 0.0
2017-Sep-19 23:58N 37°46' W 122°21'0 0.0
2017-Sep-19 23:28N 37°46' W 122°21'0 0.0
2017-Sep-19 22:58N 37°46' W 122°21'0 0.1
2017-Sep-19 22:28N 37°46' W 122°21'0 0.0
2017-Sep-19 21:58N 37°46' W 122°21'0 0.0
2017-Sep-19 21:28N 37°46' W 122°21'0 0.0
2017-Sep-19 20:58N 37°46' W 122°21'0 0.2
2017-Sep-19 20:26N 37°46' W 122°21'0 0.4
2017-Sep-19 19:58N 37°46' W 122°21'0 0.1
2017-Sep-19 19:28N 37°46' W 122°21'0 0.1
2017-Sep-19 18:58N 37°46' W 122°21'0 0.0
2017-Sep-19 18:28N 37°46' W 122°21'0 0.0
2017-Sep-19 17:55N 37°46' W 122°21'0 0.1
2017-Sep-19 17:28N 37°46' W 122°21'0 0.1
2017-Sep-19 16:58N 37°46' W 122°21'0 0.1
2017-Sep-19 16:28N 37°46' W 122°21'0 0.1
2017-Sep-19 15:58N 37°46' W 122°21'0 0.0
2017-Sep-19 15:28N 37°46' W 122°21'0 0.1
2017-Sep-19 14:58N 37°46' W 122°21'0 0.1
2017-Sep-19 14:28N 37°46' W 122°21'0 0.4
2017-Sep-19 13:58N 37°46' W 122°21'0 0.2
2017-Sep-19 13:28N 37°46' W 122°21'0 0.1
2017-Sep-19 12:58N 37°46' W 122°21'0 0.0
2017-Sep-19 12:28N 37°46' W 122°21'0 0.0
2017-Sep-19 11:58N 37°46' W 122°21'0 0.0
2017-Sep-19 11:28N 37°46' W 122°21'0 0.0
2017-Sep-19 10:58N 37°46' W 122°21'0 0.3
2017-Sep-19 10:31N 37°46' W 122°21'4 7.5
2017-Sep-19 10:00N 37°49' W 122°24'815.0
2017-Sep-19 09:30N 37°57' W 122°27'714.8
2017-Sep-19 09:01N 38°02' W 122°21'611.3
2017-Sep-19 08:30N 38°04' W 122°14'5 9.6
2017-Sep-19 08:00N 38°02' W 122°08'1 0.0
2017-Sep-17 18:01N 38°03' W 122°08'0 0.7
2017-Sep-17 18:00N 38°03' W 122°08'2 3.6
2017-Sep-17 17:28N 38°02' W 122°10'4 9.3
2017-Sep-17 17:00N 38°04' W 122°15'4 8.8
2017-Sep-17 16:31N 38°03' W 122°21'510.9
2017-Sep-17 16:00N 37°59' W 122°26'611.5
2017-Sep-17 15:30N 37°53' W 122°26'4 8.1
2017-Sep-17 15:00N 37°49' W 122°25'713.4
2017-Sep-17 14:30N 37°47' W 122°34'713.2
2017-Sep-17 14:00N 37°45' W 122°41'4 7.9
2017-Sep-17 13:30N 37°42' W 122°45'3 6.0
2017-Sep-17 13:00N 37°40' W 122°48'4 7.3
2017-Sep-17 12:30N 37°38' W 122°52'4 7.2
2017-Sep-17 12:00N 37°36' W 122°55'3 6.8
2017-Sep-17 11:30N 37°34' W 122°59'3 7.0
2017-Sep-17 11:00N 37°32' W 123°03'4 7.7
2017-Sep-17 10:30N 37°30' W 123°07'3 6.9
2017-Sep-17 10:00N 37°28' W 123°10'4 7.2
2017-Sep-17 09:30N 37°25' W 123°13'3 6.4
2017-Sep-17 09:00N 37°23' W 123°16'3 6.5
2017-Sep-17 08:30N 37°21' W 123°19'3 6.6
2017-Sep-17 08:00N 37°19' W 123°22'3 6.8
2017-Sep-17 07:30N 37°16' W 123°26'3 6.3
2017-Sep-17 07:00N 37°14' W 123°29'3 7.1
2017-Sep-17 06:30N 37°12' W 123°32'611.1
2017-Sep-17 06:00N 37°07' W 123°35'612.4
2017-Sep-17 05:30N 37°01' W 123°36'612.3
2017-Sep-17 05:00N 36°55' W 123°36'612.2
2017-Sep-17 04:30N 36°49' W 123°37'612.3
2017-Sep-17 04:00N 36°43' W 123°38'1112.4
2017-Sep-17 03:08N 36°32' W 123°39'212.4
2017-Sep-17 02:58N 36°30' W 123°39'612.6
2017-Sep-17 02:30N 36°24' W 123°39'3912.3
2017-Sep-16 23:22N 35°45' W 123°43'1712.7
2017-Sep-16 22:00N 35°28' W 123°45'4212.9
2017-Sep-16 18:46N 34°47' W 123°49'412.9
2017-Sep-16 18:30N 34°43' W 123°50'612.6
2017-Sep-16 18:00N 34°37' W 123°50'712.6
2017-Sep-16 17:27N 34°30' W 123°49'3012.2
2017-Sep-16 15:01N 34°02' W 123°38'014.2
2017-Sep-16 15:00N 34°01' W 123°38'713.8
2017-Sep-16 14:30N 33°56' W 123°33'713.6
2017-Sep-16 13:59N 33°51' W 123°27'1013.2
2017-Sep-16 13:12N 33°43' W 123°19'413.2
2017-Sep-16 12:54N 33°40' W 123°17'512.3
2017-Sep-16 12:28N 33°36' W 123°12'612.9
2017-Sep-16 11:59N 33°31' W 123°07'812.9
2017-Sep-16 11:22N 33°25' W 123°02'512.8
2017-Sep-16 11:00N 33°21' W 122°58'713.1
2017-Sep-16 10:30N 33°16' W 122°53'1713.1
2017-Sep-16 09:14N 33°03' W 122°40'313.2
2017-Sep-16 09:00N 33°01' W 122°38'713.0
2017-Sep-16 08:28N 32°55' W 122°33'713.1
2017-Sep-16 07:55N 32°49' W 122°28'613.0
2017-Sep-16 07:28N 32°45' W 122°23'712.9
2017-Sep-16 06:57N 32°40' W 122°18'612.4
2017-Sep-16 06:30N 32°36' W 122°14'813.0
2017-Sep-16 05:56N 32°30' W 122°09'4712.4
2017-Sep-16 02:07N 32°05' W 121°22'213.9
2017-Sep-16 02:00N 32°05' W 121°20'713.6
2017-Sep-16 01:30N 32°03' W 121°12'713.3
2017-Sep-16 01:00N 32°02' W 121°04'713.1
2017-Sep-16 00:30N 32°00' W 120°57'913.0
2017-Sep-15 23:49N 31°59' W 120°46'613.1
2017-Sep-15 23:24N 31°58' W 120°40'613.0
2017-Sep-15 22:58N 31°57' W 120°33'613.1
2017-Sep-15 22:29N 31°55' W 120°26'1513.1
2017-Sep-15 21:22N 31°52' W 120°09'3813.2
2017-Sep-15 18:30N 31°44' W 119°26'613.2
2017-Sep-15 18:00N 31°42' W 119°18'12 7.7
2017-Sep-15 16:28N 31°42' W 119°04'1 2.2
2017-Sep-15 15:55N 31°42' W 119°06'1 2.1
2017-Sep-15 15:25N 31°43' W 119°07'1 2.6
2017-Sep-15 15:00N 31°43' W 119°08'1 2.1
2017-Sep-15 14:28N 31°43' W 119°09'1 1.7
2017-Sep-15 13:42N 31°44' W 119°11'0 1.1
2017-Sep-15 13:20N 31°44' W 119°11'0 1.2
2017-Sep-15 12:55N 31°44' W 119°12'1 1.6
2017-Sep-15 12:23N 31°45' W 119°12'0 1.2
2017-Sep-15 11:59N 31°45' W 119°13'1 1.6
2017-Sep-15 11:30N 31°46' W 119°14'1 1.3
2017-Sep-15 11:01N 31°46' W 119°14'1 1.3
2017-Sep-15 10:30N 31°46' W 119°15'1 1.9
2017-Sep-15 10:00N 31°47' W 119°15'1 1.2
2017-Sep-15 09:30N 31°48' W 119°16'1 2.0
2017-Sep-15 08:59N 31°48' W 119°17'1 1.7
2017-Sep-15 08:30N 31°49' W 119°17'1 1.2
2017-Sep-15 08:00N 31°49' W 119°18'0 0.9
2017-Sep-15 07:30N 31°50' W 119°18'1 1.3
2017-Sep-15 06:56N 31°50' W 119°19'1 1.5
2017-Sep-15 06:30N 31°51' W 119°19'1 1.3
2017-Sep-15 06:00N 31°51' W 119°20'1 1.5
2017-Sep-15 05:30N 31°52' W 119°20'1 1.3
2017-Sep-15 04:58N 31°52' W 119°21'1 1.3
2017-Sep-15 04:24N 31°53' W 119°21'1 1.5
2017-Sep-15 04:00N 31°53' W 119°22'1 1.4
2017-Sep-15 03:31N 31°54' W 119°22'1 1.6
2017-Sep-15 02:58N 31°55' W 119°22'1 1.5
2017-Sep-15 02:28N 31°56' W 119°23'1 1.3
2017-Sep-15 02:00N 31°56' W 119°23'1 1.6
2017-Sep-15 01:29N 31°57' W 119°23'1 1.3
2017-Sep-15 01:00N 31°57' W 119°23'1 1.4
2017-Sep-15 00:30N 31°58' W 119°24'1 1.7
2017-Sep-14 23:58N 31°59' W 119°24'1 1.4
2017-Sep-14 23:28N 31°60' W 119°24'1 1.3
2017-Sep-14 23:00N 32°00' W 119°25'1 1.3
2017-Sep-14 22:27N 32°01' W 119°25'1 1.5
2017-Sep-14 22:00N 32°01' W 119°26'1 1.4
2017-Sep-14 21:25N 32°02' W 119°26'1 1.4
2017-Sep-14 20:55N 32°02' W 119°27'1 1.5
2017-Sep-14 20:29N 32°03' W 119°27'1 1.5
2017-Sep-14 19:54N 32°03' W 119°28'1 1.4
2017-Sep-14 19:26N 32°04' W 119°29'1 1.6
2017-Sep-14 19:00N 32°04' W 119°29'1 1.6
2017-Sep-14 18:25N 32°05' W 119°30'0 1.1
2017-Sep-14 18:00N 32°05' W 119°31'1 1.2
2017-Sep-14 17:25N 32°05' W 119°32'1 1.3
2017-Sep-14 16:49N 32°06' W 119°32'1 2.4
2017-Sep-14 16:30N 32°06' W 119°33'2 4.1
2017-Sep-14 15:54N 32°07' W 119°36'3 5.3
2017-Sep-14 15:25N 32°08' W 119°38'2 4.6
2017-Sep-14 15:00N 32°09' W 119°40'4 2.0
2017-Sep-14 13:13N 32°11' W 119°44'1 2.9
2017-Sep-14 12:52N 32°11' W 119°45'3 0.3
2017-Sep-14 01:54N 32°11' W 119°49'3110.4
2017-Sep-13 22:52N 31°40' W 119°43'513.2
2017-Sep-13 22:30N 31°35' W 119°42'  

Dump ship's entire track history